Time;durP1;ratioP1;P1;durP2;ratioP2;P2;SDS_P1;SDS_P2;PMS_P1;PMS_P2;Temp;Humidity;BMP_temperature;BMP_pressure;BME280_temperature;BME280_humidity;BME280_pressure;Samples;Min_cycle;Max_cycle;Signal;HPM_P1;HPM_P2
2021/07/25 00:02:26;;;;;;;19.90;15.50;;;;;;;18.81;59.60;99897.47;2056897;86;30970;-64
2021/07/25 00:05:35;;;;;;;23.62;14.65;;;;;;;18.81;60.02;99896.11;2049919;86;33029;-64
2021/07/25 00:08:39;;;;;;;24.85;15.93;;;;;;;18.78;60.05;99900.45;2058419;86;29513;-64
2021/07/25 00:11:50;;;;;;;20.23;14.37;;;;;;;18.77;60.14;99900.09;2057126;86;27941;-64
2021/07/25 00:15:02;;;;;;;21.23;15.13;;;;;;;18.76;60.28;99897.89;2050097;86;28840;-64
2021/07/25 00:18:14;;;;;;;19.65;14.95;;;;;;;18.75;60.37;99889.39;2056174;86;31914;-64
2021/07/25 00:21:21;;;;;;;22.25;15.60;;;;;;;18.75;60.11;99894.82;2055949;86;33083;-64
2021/07/25 00:24:34;;;;;;;19.30;15.78;;;;;;;18.76;60.33;99891.11;2049981;86;29376;-65
2021/07/25 00:27:42;;;;;;;19.62;14.58;;;;;;;18.77;60.56;99887.41;2055736;86;28015;-66
2021/07/25 00:30:50;;;;;;;25.62;15.13;;;;;;;18.78;60.63;99887.73;2056344;86;28668;-66
2021/07/25 00:33:57;;;;;;;19.45;15.15;;;;;;;18.78;60.80;99883.66;2049423;86;31081;-66
2021/07/25 00:37:03;;;;;;;23.10;15.35;;;;;;;18.80;61.11;99878.95;2051599;85;32999;-65
2021/07/25 00:40:09;;;;;;;18.98;15.18;;;;;;;18.81;61.23;99876.60;2047717;86;29356;-63
2021/07/25 00:43:28;;;;;;;24.90;15.13;;;;;;;18.80;61.21;99864.03;2038682;86;27954;-64
2021/07/25 00:46:38;;;;;;;25.40;15.45;;;;;;;18.82;61.72;99853.89;2035157;87;28835;-63
2021/07/25 00:49:48;;;;;;;21.30;16.45;;;;;;;18.81;61.27;99848.10;2034984;87;31077;-64
2021/07/25 00:52:59;;;;;;;26.25;14.95;;;;;;;18.82;61.23;99843.55;2035361;87;32989;-65
2021/07/25 00:56:11;;;;;;;25.60;16.42;;;;;;;18.80;61.36;99834.69;2035370;86;29337;-64
2021/07/25 00:59:16;;;;;;;22.42;15.58;;;;;;;18.76;61.56;99826.47;2048159;86;27872;-63
2021/07/25 01:02:25;;;;;;;20.27;15.78;;;;;;;18.74;61.90;99824.38;2048108;86;28635;-65
2021/07/25 01:05:42;;;;;;;17.55;15.13;;;;;;;18.72;61.39;99823.19;2029784;86;31028;-66
2021/07/25 01:09:02;;;;;;;24.30;17.17;;;;;;;18.70;61.82;99819.75;2035602;87;32991;-67
2021/07/25 01:12:16;;;;;;;22.05;15.93;;;;;;;18.70;61.83;99811.61;2048038;86;29429;-67
2021/07/25 01:15:44;;;;;;;22.02;15.85;;;;;;;18.69;62.06;99809.89;2023353;86;27950;-66
2021/07/25 01:18:52;;;;;;;18.52;16.30;;;;;;;18.67;62.05;99812.76;2035293;86;28905;-62
2021/07/25 01:21:58;;;;;;;20.92;16.23;;;;;;;18.70;62.33;99816.19;2038789;86;31028;-63
2021/07/25 01:25:04;;;;;;;23.12;15.95;;;;;;;18.71;62.57;99811.09;2016499;87;33929;-65
2021/07/25 01:28:21;;;;;;;27.30;16.35;;;;;;;18.74;62.16;99804.91;2047847;86;29339;-66
2021/07/25 01:31:38;;;;;;;24.20;16.27;;;;;;;18.75;62.38;99797.13;2047482;86;27939;-66
2021/07/25 01:34:46;;;;;;;24.90;16.30;;;;;;;18.71;62.54;99787.55;2011840;87;30283;-66
2021/07/25 01:37:56;;;;;;;21.60;15.95;;;;;;;18.76;62.44;99782.56;2036611;87;31000;-68
2021/07/25 01:41:16;;;;;;;20.95;14.63;;;;;;;18.74;63.05;99784.56;2054792;86;32751;-67
2021/07/25 01:44:23;;;;;;;21.70;16.07;;;;;;;18.73;63.11;99777.90;2048000;86;30537;-67
2021/07/25 01:47:34;;;;;;;22.22;16.55;;;;;;;18.72;62.85;99776.18;2035593;87;27931;-67
2021/07/25 01:50:42;;;;;;;21.65;15.45;;;;;;;18.71;62.74;99770.39;2035179;87;27949;-67
2021/07/25 01:53:49;;;;;;;24.67;17.23;;;;;;;18.70;62.89;99772.27;2047796;86;31040;-65
2021/07/25 01:56:56;;;;;;;23.77;18.25;;;;;;;18.69;62.75;99780.05;2028947;86;33063;-64
2021/07/25 02:00:00;;;;;;;24.57;17.57;;;;;;;18.68;62.84;99784.62;2037142;86;29333;-65
2021/07/25 02:03:05;;;;;;;28.32;15.88;;;;;;;18.67;62.67;99788.34;2035902;87;27992;-66
2021/07/25 02:06:11;;;;;;;19.15;15.72;;;;;;;18.66;63.05;99792.53;2048487;86;29337;-66
2021/07/25 02:09:14;;;;;;;18.20;15.53;;;;;;;18.63;63.30;99783.31;2051460;86;31105;-66
2021/07/25 02:12:18;;;;;;;19.55;16.40;;;;;;;18.58;63.24;99789.17;2036341;86;33034;-65
2021/07/25 02:15:25;;;;;;;25.17;16.67;;;;;;;18.53;63.15;99778.75;2039038;87;29552;-66
2021/07/25 02:18:33;;;;;;;22.00;16.48;;;;;;;18.51;63.41;99781.25;2048530;86;27390;-65
2021/07/25 02:21:41;;;;;;;24.02;17.42;;;;;;;18.31;63.68;99756.80;2050396;86;28642;-65
2021/07/25 02:25:13;;;;;;;21.12;17.23;;;;;;;18.46;63.58;99786.23;2037471;86;31051;-65
2021/07/25 02:28:19;;;;;;;20.17;16.50;;;;;;;18.44;63.70;99792.29;1974501;89;33063;-65
2021/07/25 02:31:24;;;;;;;20.95;16.37;;;;;;;18.41;63.56;99792.08;2008595;88;29541;-65
2021/07/25 02:34:33;;;;;;;24.65;17.67;;;;;;;18.37;63.68;99792.84;2008413;88;28100;-65
2021/07/25 02:37:40;;;;;;;31.68;18.85;;;;;;;18.33;63.83;99792.78;2008609;88;28645;-66
2021/07/25 02:40:46;;;;;;;23.40;18.12;;;;;;;18.30;63.91;99795.77;2008621;88;30998;-64
2021/07/25 02:43:52;;;;;;;25.95;18.32;;;;;;;18.26;63.80;99795.67;2008138;88;33013;-65
2021/07/25 02:47:33;;;;;;;32.33;17.52;;;;;;;18.25;64.12;99798.53;1986889;88;29404;-63
2021/07/25 02:51:19;;;;;;;25.17;19.25;;;;;;;18.20;64.19;99799.80;1973804;88;28020;-64
2021/07/25 03:00:58;;;;;;;25.10;18.77;;;;;;;18.13;64.95;99787.78;;;;
2021/07/25 03:04:01;;;;;;;23.20;19.57;;;;;;;18.10;64.68;99777.72;1673547;105;28388;-65
2021/07/25 03:08:07;;;;;;;26.23;20.17;;;;;;;18.10;64.78;99778.59;1673897;106;28131;-65
2021/07/25 03:12:15;;;;;;;22.77;17.82;;;;;;;18.07;65.19;99783.77;1681294;102;28230;-66
2021/07/25 03:35:50;;;;;;;26.07;18.73;;;;;;;18.02;65.82;99783.34;1603786;107;28232;-67
2021/07/25 03:40:01;;;;;;;29.45;20.25;;;;;;;18.02;66.08;99784.70;1730373;99;31059;-67
2021/07/25 03:42:35;;;;;;;31.45;20.68;;;;;;;18.04;66.00;99788.62;1737469;101;28929;-66
2021/07/25 03:45:49;;;;;;;25.35;20.20;;;;;;;18.04;66.00;99788.62;1775775;99;28087;-65
2021/07/25 04:38:20;;;;;;;25.62;19.52;;;;;;;19.80;64.34;99801.37;1504886;113;29528;-65
2021/07/25 04:41:45;;;;;;;;;;;;;;;;;;;;;
2021/07/25 04:50:14;;;;;;;;;;;;;;;;;;;;;
2021/07/25 04:54:10;;;;;;;;;;;;;;;;;;;;;
2021/07/25 04:57:29;;;;;;;25.37;18.35;;;;;;;21.52;62.55;99795.19;1497520;118;30063;-66
2021/07/25 05:00:38;;;;;;;22.98;17.65;;;;;;;22.28;61.86;99780.93;1497334;118;28248;-67
2021/07/25 05:03:44;;;;;;;20.85;16.25;;;;;;;22.87;60.49;99789.11;1497527;118;28743;-66
2021/07/25 05:06:51;;;;;;;21.00;17.40;;;;;;;23.39;59.95;99784.89;1497303;118;31222;-67
2021/07/25 05:09:58;;;;;;;20.65;16.20;;;;;;;23.66;59.21;99781.75;1503727;114;33077;-67
2021/07/25 05:13:12;;;;;;;20.32;17.40;;;;;;;23.80;58.51;99777.45;1547679;105;29365;-66
2021/07/25 05:16:29;;;;;;;18.25;15.48;;;;;;;23.69;57.89;99785.17;1689970;104;27965;-66
2021/07/25 05:19:53;;;;;;;18.87;16.85;;;;;;;23.45;57.74;99790.52;1686494;104;28760;-64
2021/07/25 05:23:15;;;;;;;21.73;16.48;;;;;;;23.20;57.97;99796.48;1685575;105;32008;-64
2021/07/25 05:26:25;;;;;;;25.48;17.15;;;;;;;23.02;58.13;99787.07;1876923;92;33200;-64
2021/07/25 05:29:34;;;;;;;19.27;16.75;;;;;;;22.77;57.93;99793.89;1917805;92;29344;-66
2021/07/25 05:32:41;;;;;;;23.87;17.50;;;;;;;22.57;58.48;99796.08;1894852;93;28070;-65
2021/07/25 05:35:46;;;;;;;23.12;17.20;;;;;;;22.45;58.51;99801.83;1895432;91;28665;-65
2021/07/25 05:38:51;;;;;;;21.10;18.07;;;;;;;22.37;58.69;99810.47;1895307;93;31039;-65
2021/07/25 05:41:56;;;;;;;22.22;19.15;;;;;;;22.32;58.84;99810.97;1969933;88;33065;-66
2021/07/25 05:45:07;;;;;;;27.62;19.57;;;;;;;22.16;58.92;99800.34;1979539;89;28024;-64
2021/07/25 05:48:17;;;;;;;25.35;18.70;;;;;;;22.21;59.03;99824.92;2000489;88;27468;-66
2021/07/25 05:51:28;;;;;;;23.60;18.57;;;;;;;22.18;59.14;99824.72;1978256;89;28118;-72
2021/07/25 05:54:36;;;;;;;20.32;18.20;;;;;;;22.09;59.19;99819.73;1982010;89;31741;-72
2021/07/25 05:57:44;;;;;;;22.50;17.70;;;;;;;22.14;59.41;99832.91;1982268;89;33693;-62
2021/07/25 06:01:39;;;;;;;25.17;17.52;;;;;;;22.11;59.42;99840.89;1979015;89;29430;-68
2021/07/25 06:04:09;;;;;;;24.63;18.32;;;;;;;22.09;59.48;99842.92;1933576;89;27971;-70
2021/07/25 06:18:01;;;;;;;;;;;;;;;;;;;;;
2021/07/25 06:46:36;;;;;;;28.67;19.48;;;;;;;24.49;57.34;99844.44;1553102;111;28295;-67
2021/07/25 06:49:41;;;;;;;22.02;17.95;;;;;;;25.29;56.41;99849.77;1544409;114;28185;-67
2021/07/25 06:52:45;;;;;;;25.75;18.52;;;;;;;25.68;56.00;99854.27;1628218;108;28728;-67
2021/07/25 06:55:49;;;;;;;27.05;18.77;;;;;;;25.97;55.48;99859.47;1761334;99;32461;-67
2021/07/25 06:58:53;;;;;;;20.90;17.57;;;;;;;26.26;55.17;99859.16;1772284;100;33063;-67
2021/07/25 07:02:03;;;;;;;23.40;18.02;;;;;;;26.49;54.61;99859.58;1804024;94;29362;-66
2021/07/25 07:05:12;;;;;;;21.42;17.90;;;;;;;26.68;54.15;99857.61;1824020;97;28065;-67
2021/07/25 07:08:19;;;;;;;23.50;18.77;;;;;;;26.80;53.60;99854.38;1848954;94;28549;-66
2021/07/25 07:11:32;;;;;;;25.60;17.92;;;;;;;26.96;53.26;99850.02;1823745;97;31172;-67
2021/07/25 07:14:37;;;;;;;28.03;19.93;;;;;;;27.02;52.95;99844.25;1855640;95;33351;-64
2021/07/25 07:17:43;;;;;;;21.02;17.42;;;;;;;27.21;52.77;99846.03;1823946;97;29440;-65
2021/07/25 07:20:46;;;;;;;21.52;17.52;;;;;;;27.41;52.50;99845.70;1842953;96;27701;-67
2021/07/25 07:23:52;;;;;;;23.43;17.27;;;;;;;27.50;51.46;99853.32;1898026;93;28685;-63
2021/07/25 07:26:54;;;;;;;22.48;17.87;;;;;;;27.62;51.70;99851.39;1928252;92;31316;-70
2021/07/25 07:29:57;;;;;;;22.75;17.55;;;;;;;27.67;51.10;99846.15;1945396;90;34302;-74
2021/07/25 07:33:14;;;;;;;19.12;16.45;;;;;;;27.82;50.88;99848.27;1927855;92;29489;-66
2021/07/25 07:36:19;;;;;;;22.60;17.65;;;;;;;27.84;49.91;99846.69;1927817;92;28065;-67
2021/07/25 07:39:23;;;;;;;21.20;16.45;;;;;;;27.87;50.51;99845.78;1906980;92;28737;-72
2021/07/25 07:42:28;;;;;;;23.90;15.53;;;;;;;27.93;49.96;99849.63;1926135;92;31114;-75
2021/07/25 07:45:34;;;;;;;22.75;16.55;;;;;;;28.02;50.08;99853.07;1926199;92;33183;-73
2021/07/25 07:48:36;;;;;;;19.35;16.17;;;;;;;28.11;49.91;99857.92;1927063;92;29323;-72
2021/07/25 07:51:38;;;;;;;19.60;15.58;;;;;;;27.92;49.45;99860.81;1907328;92;27998;-73
2021/07/25 07:54:41;;;;;;;19.52;15.32;;;;;;;27.88;49.23;99861.75;1910648;92;28680;-74
2021/07/25 07:57:44;;;;;;;18.32;16.27;;;;;;;27.84;49.73;99859.94;1927778;92;31047;-70
2021/07/25 08:00:46;;;;;;;19.82;15.95;;;;;;;27.84;49.21;99854.44;1910802;92;32999;-69
2021/07/25 08:03:48;;;;;;;18.45;15.25;;;;;;;27.74;49.02;99856.16;1927971;92;29440;-73
2021/07/25 08:06:50;;;;;;;17.27;14.73;;;;;;;27.80;49.50;99854.50;1910976;91;28004;-73
2021/07/25 08:09:53;;;;;;;20.32;14.90;;;;;;;27.91;49.57;99859.98;1928227;92;28664;-74
2021/07/25 08:12:57;;;;;;;21.17;14.43;;;;;;;27.99;49.50;99867.23;1910831;92;31194;-73
2021/07/25 08:15:59;;;;;;;16.52;14.47;;;;;;;28.02;49.12;99866.84;1908936;92;32971;-76
2021/07/25 08:19:02;;;;;;;17.90;13.18;;;;;;;28.01;49.08;99865.97;1911019;92;29526;-76
2021/07/25 08:22:07;;;;;;;15.15;13.55;;;;;;;27.99;48.58;99873.58;1908443;92;27613;-68
2021/07/25 08:25:10;;;;;;;19.00;13.98;;;;;;;27.95;48.39;99873.68;1927998;92;28322;-69
2021/07/25 08:28:13;;;;;;;18.17;13.08;;;;;;;27.93;48.44;99873.02;1928527;92;30918;-72
2021/07/25 08:31:18;;;;;;;19.87;14.10;;;;;;;27.87;47.69;99865.55;1928167;92;33387;-72
2021/07/25 08:34:20;;;;;;;16.97;13.30;;;;;;;27.83;48.20;99861.50;1928432;92;29329;-72
2021/07/25 08:37:26;;;;;;;15.90;12.28;;;;;;;27.86;48.42;99866.09;1907392;92;27953;-69
2021/07/25 08:40:32;;;;;;;15.68;12.30;;;;;;;27.88;48.03;99868.64;1927123;88;27759;-73
2021/07/25 08:43:40;;;;;;;13.95;12.03;;;;;;;27.88;47.78;99865.88;1915028;92;31190;-77
2021/07/25 08:46:44;;;;;;;15.48;12.37;;;;;;;27.90;47.38;99874.80;1915193;92;33085;-75
2021/07/25 08:50:10;;;;;;;14.60;12.18;;;;;;;27.86;47.87;99869.36;1894872;92;29401;-74
2021/07/25 08:53:19;;;;;;;15.23;11.35;;;;;;;27.85;47.93;99879.53;1915129;92;28020;-74
2021/07/25 08:56:21;;;;;;;14.15;12.03;;;;;;;27.84;47.56;99875.59;1896331;92;28673;-71
2021/07/25 08:59:27;;;;;;;16.07;11.73;;;;;;;27.80;47.38;99882.03;1915331;92;31094;-71
2021/07/25 09:02:32;;;;;;;16.40;11.38;;;;;;;27.77;47.47;99891.22;1915221;90;32976;-72
2021/07/25 09:05:36;;;;;;;11.90;10.45;;;;;;;27.79;47.19;99898.75;1915359;92;29349;-74
2021/07/25 09:08:39;;;;;;;12.70;10.40;;;;;;;27.83;47.06;99894.02;1915531;92;28012;-74
2021/07/25 09:11:44;;;;;;;11.40;10.20;;;;;;;27.84;47.17;99893.48;1915604;92;28682;-72
2021/07/25 09:14:51;;;;;;;12.93;10.68;;;;;;;27.86;47.20;99897.75;1915387;92;31055;-71
2021/07/25 09:17:55;;;;;;;13.93;10.38;;;;;;;27.86;47.00;99899.64;1915296;92;33143;-72
2021/07/25 09:20:58;;;;;;;11.43;10.05;;;;;;;27.90;47.09;99903.16;1915212;92;29414;-74
2021/07/25 09:24:29;;;;;;;11.88;10.65;;;;;;;27.95;46.97;99907.23;1915858;92;28011;-73
2021/07/25 09:27:32;;;;;;;15.72;11.22;;;;;;;28.02;46.81;99902.63;1923323;92;28799;-76
2021/07/25 09:30:34;;;;;;;13.28;10.50;;;;;;;28.09;46.88;99910.40;1946816;91;31025;-69
2021/07/25 09:33:36;;;;;;;11.20;10.00;;;;;;;28.19;46.95;99908.19;1946764;91;32992;-73
2021/07/25 09:36:40;;;;;;;15.28;10.93;;;;;;;28.28;47.17;99906.64;1946517;91;29394;-73
2021/07/25 09:39:55;;;;;;;14.30;10.70;;;;;;;28.43;46.81;99905.14;1927426;91;28047;-67
2021/07/25 09:43:27;;;;;;;17.42;11.30;;;;;;;28.54;46.91;99899.59;1952791;88;30181;-64
2021/07/25 09:46:49;;;;;;;14.10;11.33;;;;;;;28.68;46.85;99897.22;1943372;91;31227;-64
2021/07/25 09:49:53;;;;;;;16.30;10.32;;;;;;;28.80;46.58;99896.97;1955612;89;34399;-66
2021/07/25 09:53:00;;;;;;;12.85;10.95;;;;;;;28.82;46.11;99895.37;1947298;91;29338;-67
2021/07/25 09:56:14;;;;;;;12.68;10.23;;;;;;;28.77;45.70;99898.75;1947251;90;27804;-66
2021/07/25 09:59:27;;;;;;;16.65;10.58;;;;;;;28.68;45.86;99893.59;1946714;90;28707;-67
2021/07/25 10:02:38;;;;;;;12.90;11.33;;;;;;;28.57;45.69;99899.16;1947047;91;31081;-65
2021/07/25 10:05:42;;;;;;;14.68;10.88;;;;;;;28.47;46.03;99897.64;1946997;90;32982;-65
2021/07/25 10:08:46;;;;;;;13.93;11.45;;;;;;;28.41;46.11;99896.23;1947358;91;29345;-65
2021/07/25 10:12:02;;;;;;;;;;;;;;;28.32;46.31;99903.81;1949652;91;27661;-69
2021/07/25 10:15:05;;;;;;;13.48;10.98;;;;;;;28.22;46.52;99899.17;1946267;90;29446;-69
2021/07/25 10:18:08;;;;;;;18.42;11.65;;;;;;;28.08;47.42;99906.48;1947118;90;30867;-66
2021/07/25 10:21:16;;;;;;;15.48;12.43;;;;;;;27.97;48.10;99907.88;1943483;91;30640;-65
2021/07/25 10:24:27;;;;;;;15.95;12.40;;;;;;;27.84;48.82;99910.87;2037641;87;29391;-63
2021/07/25 10:27:40;;;;;;;20.17;12.50;;;;;;;27.70;49.36;99914.02;2041054;86;27911;-64
2021/07/25 10:30:47;;;;;;;13.45;12.13;;;;;;;27.58;49.92;99919.20;2018769;87;28691;-64
2021/07/25 10:33:56;;;;;;;14.18;12.18;;;;;;;27.46;50.83;99913.07;2050063;86;31027;-64
2021/07/25 10:37:02;;;;;;;15.55;13.70;;;;;;;27.35;50.93;99918.53;2050020;86;32970;-64
2021/07/25 10:40:13;;;;;;;14.98;12.25;;;;;;;27.24;51.45;99914.40;2025395;86;29329;-62
2021/07/25 10:43:25;;;;;;;15.60;12.82;;;;;;;27.14;51.61;99913.34;2078117;84;27750;-63
2021/07/25 10:46:33;;;;;;;17.75;12.80;;;;;;;27.05;52.07;99915.89;2088979;85;29130;-63
2021/07/25 10:49:38;;;;;;;18.57;13.83;;;;;;;27.00;52.28;99909.58;2059802;86;31040;-62
2021/07/25 10:53:04;;;;;;;14.78;12.43;;;;;;;26.95;52.94;99912.91;2047141;86;32975;-62
2021/07/25 10:56:10;;;;;;;14.83;12.53;;;;;;;26.96;53.40;99911.03;2046903;86;27995;-63
2021/07/25 10:59:35;;;;;;;15.68;12.93;;;;;;;27.00;53.79;99908.20;2046932;86;27937;-63
2021/07/25 11:02:54;;;;;;;14.53;11.50;;;;;;;27.06;53.68;99908.81;2046968;86;28708;-63
2021/07/25 11:06:13;;;;;;;13.72;12.33;;;;;;;27.07;52.54;99898.65;2047181;86;31074;-62
2021/07/25 11:09:40;;;;;;;13.98;11.20;;;;;;;27.12;52.93;99902.55;2047103;86;32978;-64
2021/07/25 11:12:56;;;;;;;12.07;9.60;;;;;;;27.07;52.15;99898.65;2006561;88;29545;-63
2021/07/25 11:16:06;;;;;;;13.25;10.10;;;;;;;27.05;50.99;99902.14;2006781;88;28078;-63
2021/07/25 11:19:26;;;;;;;13.45;11.45;;;;;;;26.98;51.19;99892.42;2004274;88;28702;-63
2021/07/25 11:22:47;;;;;;;15.40;10.65;;;;;;;27.03;51.37;99897.36;2006780;88;31087;-63
2021/07/25 11:25:54;;;;;;;9.08;7.37;;;;;;;27.11;51.94;99889.84;2006797;88;33041;-63
2021/07/25 11:29:07;;;;;;;8.63;7.33;;;;;;;27.05;50.04;99886.48;2007116;88;29365;-63
2021/07/25 11:32:38;;;;;;;8.50;7.33;;;;;;;26.83;49.12;99889.73;2007109;88;28014;-63
2021/07/25 11:35:45;;;;;;;10.55;7.05;;;;;;;26.68;49.10;99887.83;2007151;88;29364;-63
2021/07/25 11:38:55;;;;;;;8.35;7.45;;;;;;;26.50;48.64;99888.76;2006756;88;31037;-63
2021/07/25 11:42:11;;;;;;;9.88;8.25;;;;;;;26.46;48.42;99882.80;2005348;87;32967;-63
2021/07/25 11:45:15;;;;;;;10.13;7.50;;;;;;;26.42;48.82;99890.21;1979625;88;29381;-63
2021/07/25 11:48:25;;;;;;;11.60;8.35;;;;;;;26.35;48.02;99896.48;1980177;88;27954;-63
2021/07/25 11:51:30;;;;;;;9.23;8.03;;;;;;;26.26;48.43;99907.75;1990341;88;28768;-63
2021/07/25 11:54:37;;;;;;;;;;;;;;;26.33;49.42;99900.45;2007413;88;31041;-64
2021/07/25 11:57:49;;;;;;;11.88;8.05;;;;;;;26.41;50.35;99906.36;2005037;88;33112;-63
2021/07/25 12:00:56;;;;;;;10.75;8.13;;;;;;;26.41;49.96;99901.73;2017155;87;29376;-64
2021/07/25 12:04:21;;;;;;;9.78;8.30;;;;;;;26.37;49.92;99901.78;1985092;88;28094;-64
2021/07/25 12:07:34;;;;;;;;;;;;;;;26.28;50.37;99893.31;2008768;88;28775;-63
2021/07/25 12:10:38;;;;;;;10.00;8.53;;;;;;;26.32;49.99;99897.36;2006742;88;31029;-64
2021/07/25 12:13:52;;;;;;;13.13;8.23;;;;;;;26.28;49.72;99897.44;2018301;87;32983;-63
2021/07/25 12:16:56;;;;;;;9.03;7.77;;;;;;;26.32;50.15;99894.11;2006861;88;29335;-63
2021/07/25 12:20:17;;;;;;;11.65;8.18;;;;;;;26.43;49.67;99885.05;2029789;87;28032;-64
2021/07/25 12:23:38;;;;;;;9.80;8.50;;;;;;;26.47;49.58;99888.63;2005889;88;28721;-63
2021/07/25 12:26:45;;;;;;;12.00;8.20;;;;;;;26.50;49.69;99888.76;2017243;87;31027;-63
2021/07/25 12:29:50;;;;;;;9.83;8.85;;;;;;;26.54;49.73;99884.05;2006388;88;33021;-64
2021/07/25 12:33:01;;;;;;;10.10;9.10;;;;;;;26.70;49.75;99894.50;2018273;87;29339;-63
2021/07/25 12:36:13;;;;;;;13.05;9.78;;;;;;;26.79;49.34;99887.00;2017617;86;27954;-63
2021/07/25 12:39:20;;;;;;;10.95;9.35;;;;;;;26.90;48.65;99898.05;2006396;88;28666;-63
2021/07/25 12:42:46;;;;;;;12.35;10.23;;;;;;;27.07;48.96;99893.16;2025148;85;31063;-64
2021/07/25 12:45:54;;;;;;;13.40;9.88;;;;;;;27.26;47.99;99894.43;2076963;85;33045;-63
2021/07/25 12:49:06;;;;;;;10.72;9.43;;;;;;;27.42;47.19;99884.54;2084669;85;29374;-64
2021/07/25 12:52:15;;;;;;;11.20;9.58;;;;;;;27.40;46.80;99889.39;2077334;85;27973;-64
2021/07/25 12:55:22;;;;;;;11.48;10.43;;;;;;;27.44;46.01;99881.07;2076176;85;28654;-63
2021/07/25 12:58:38;;;;;;;13.98;11.08;;;;;;;27.39;46.74;99884.93;2056746;86;31038;-63
2021/07/25 13:04:52;;;;;;;15.10;11.75;;;;;;;27.29;45.68;99887.17;2050160;86;29392;-63
2021/07/25 13:07:56;;;;;;;13.93;12.58;;;;;;;27.13;46.09;99876.75;2050541;85;27833;-63
2021/07/25 13:11:05;;;;;;;13.35;12.07;;;;;;;27.18;46.31;99878.04;2050582;86;28690;-63
2021/07/25 13:14:15;;;;;;;13.65;12.25;;;;;;;27.29;45.70;99881.13;2028834;86;31156;-64
2021/07/25 13:17:21;;;;;;;14.38;12.13;;;;;;;27.33;45.43;99876.08;2050288;86;32985;-64
2021/07/25 13:20:26;;;;;;;15.18;12.37;;;;;;;27.39;45.44;99874.44;2050498;86;29327;-63
2021/07/25 13:23:31;;;;;;;13.75;11.63;;;;;;;27.39;44.78;99878.05;2050396;85;28002;-63
2021/07/25 13:26:38;;;;;;;13.53;12.13;;;;;;;27.46;45.24;99874.55;2049770;86;28740;-63
2021/07/25 13:29:43;;;;;;;11.83;10.72;;;;;;;27.54;45.28;99873.89;2048985;86;31262;-63
2021/07/25 13:32:50;;;;;;;13.20;11.95;;;;;;;27.68;44.73;99869.87;2048874;86;32996;-64
2021/07/25 13:35:54;;;;;;;13.72;12.37;;;;;;;27.84;44.60;99860.45;2049078;86;29986;-64
2021/07/25 13:38:59;;;;;;;13.68;12.18;;;;;;;27.98;44.46;99866.36;2050581;86;27799;-64
2021/07/25 13:42:05;;;;;;;16.07;12.50;;;;;;;28.09;44.20;99853.11;2050318;86;28664;-64
2021/07/25 13:45:12;;;;;;;15.72;11.15;;;;;;;28.29;44.40;99850.48;2035392;87;31136;-64
2021/07/25 13:48:19;;;;;;;12.68;11.48;;;;;;;28.40;43.61;99839.42;2035605;87;32999;-63
2021/07/25 13:51:25;;;;;;;12.30;11.10;;;;;;;28.30;43.57;99841.17;2067705;85;29350;-63
2021/07/25 13:54:32;;;;;;;15.45;12.10;;;;;;;28.21;43.71;99839.11;2029568;87;28083;-63
2021/07/25 13:57:37;;;;;;;12.03;10.68;;;;;;;28.20;43.33;99841.03;2073964;85;28634;-63
2021/07/25 14:00:42;;;;;;;15.78;12.93;;;;;;;28.16;43.66;99843.86;2074073;85;30997;-63
2021/07/25 14:03:50;;;;;;;14.55;13.18;;;;;;;28.15;43.58;99842.67;2036143;87;32988;-62
2021/07/25 14:06:57;;;;;;;13.50;11.73;;;;;;;28.17;43.44;99840.05;2073965;84;29316;-63
2021/07/25 14:10:03;;;;;;;15.35;12.73;;;;;;;28.16;43.01;99837.48;2073984;85;27806;-63
2021/07/25 14:13:10;;;;;;;14.80;13.25;;;;;;;28.07;43.63;99834.55;2036327;87;28673;-63
2021/07/25 14:16:25;;;;;;;13.75;12.45;;;;;;;28.07;43.42;99840.06;2074014;85;31082;-63
2021/07/25 14:19:30;;;;;;;15.90;14.10;;;;;;;28.01;43.68;99834.84;2036516;87;32969;-63
2021/07/25 14:22:35;;;;;;;15.23;13.72;;;;;;;27.98;43.16;99833.87;2073861;85;29314;-63
2021/07/25 14:25:49;;;;;;;14.70;13.25;;;;;;;27.94;43.54;99838.94;2073649;85;27921;-63
2021/07/25 14:28:54;;;;;;;16.62;14.93;;;;;;;27.95;43.96;99828.76;2029393;86;28718;-63
2021/07/25 14:32:04;;;;;;;16.17;14.60;;;;;;;28.07;44.10;99834.02;2048478;85;31666;-63
2021/07/25 14:35:12;;;;;;;16.48;14.83;;;;;;;27.99;43.73;99828.69;2035574;87;33258;-64
2021/07/25 14:38:19;;;;;;;16.57;14.90;;;;;;;28.01;43.92;99834.30;2073802;85;29343;-64
2021/07/25 14:41:25;;;;;;;15.95;14.40;;;;;;;28.06;43.82;99837.81;2036265;87;27907;-63
2021/07/25 14:44:32;;;;;;;17.67;13.85;;;;;;;28.01;43.80;99820.53;2083959;83;27874;-64
2021/07/25 14:47:40;;;;;;;15.15;13.65;;;;;;;28.08;43.57;99818.36;2059865;86;31074;-64
2021/07/25 14:50:51;;;;;;;14.90;13.40;;;;;;;28.04;43.71;99817.38;2046449;86;34279;-64
2021/07/25 14:53:57;;;;;;;17.82;14.87;;;;;;;27.94;43.45;99813.29;2046787;86;29336;-64
2021/07/25 14:57:02;;;;;;;15.98;14.38;;;;;;;27.94;43.72;99816.91;2045780;86;27994;-64
2021/07/25 15:00:11;;;;;;;16.87;14.05;;;;;;;27.99;43.69;99811.63;2045764;86;28643;-63
2021/07/25 15:03:17;;;;;;;15.75;13.48;;;;;;;28.00;43.56;99803.69;2013358;86;30939;-64
2021/07/25 15:06:22;;;;;;;13.20;11.73;;;;;;;27.92;43.56;99794.23;2045457;86;33010;-67
2021/07/25 15:09:28;;;;;;;13.60;12.07;;;;;;;27.95;43.70;99787.46;2044650;86;29333;-71
2021/07/25 15:12:30;;;;;;;13.40;12.05;;;;;;;27.95;43.65;99787.46;2049384;86;27699;-69
2021/07/25 15:15:33;;;;;;;14.93;13.10;;;;;;;27.93;43.65;99782.17;2048592;86;28689;-71
2021/07/25 15:18:36;;;;;;;14.03;12.47;;;;;;;27.95;43.58;99783.33;2048847;86;31085;-70
2021/07/25 15:21:43;;;;;;;14.28;12.65;;;;;;;27.99;43.96;99777.75;2049624;86;32993;-68
2021/07/25 15:24:46;;;;;;;13.95;12.45;;;;;;;28.00;43.68;99771.19;2049620;86;29556;-67
2021/07/25 15:27:48;;;;;;;14.68;13.28;;;;;;;27.95;43.84;99778.69;2049338;86;27890;-68
2021/07/25 15:30:51;;;;;;;14.70;13.10;;;;;;;27.89;43.79;99773.44;2050021;86;28910;-64
2021/07/25 15:33:57;;;;;;;15.10;13.60;;;;;;;27.83;43.78;99776.16;2049910;86;31039;-64
2021/07/25 15:37:04;;;;;;;15.25;12.80;;;;;;;27.84;43.90;99776.48;2046500;86;33131;-64
2021/07/25 15:40:13;;;;;;;16.32;13.75;;;;;;;27.83;43.93;99767.39;2046116;86;29473;-64
2021/07/25 15:43:22;;;;;;;17.95;12.98;;;;;;;27.78;44.00;99772.64;2043677;86;27857;-65
2021/07/25 15:46:26;;;;;;;13.03;11.83;;;;;;;27.67;44.26;99763.59;2035457;87;28696;-64
2021/07/25 15:49:30;;;;;;;;;;;;;;;27.55;44.48;99761.91;2038287;87;31079;-64
2021/07/25 15:52:41;;;;;;;15.20;13.28;;;;;;;27.42;44.38;99744.75;2035958;87;33689;-64
2021/07/25 15:55:48;;;;;;;14.25;12.93;;;;;;;27.31;44.64;99750.27;2016160;87;29560;-64
2021/07/25 15:58:57;;;;;;;13.80;12.50;;;;;;;27.19;44.82;99742.25;2035822;87;28006;-65
2021/07/25 16:02:03;;;;;;;14.90;13.30;;;;;;;27.04;44.84;99729.98;2036013;87;28658;-66
2021/07/25 16:05:12;;;;;;;19.15;13.75;;;;;;;26.90;45.19;99740.00;2036043;87;31099;-63
2021/07/25 16:08:18;;;;;;;15.63;12.68;;;;;;;26.82;45.39;99742.36;2035618;87;32990;-62
2021/07/25 16:11:32;;;;;;;13.55;12.15;;;;;;;26.68;45.45;99731.20;2036133;87;29343;-67
2021/07/25 16:14:32;;;;;;;17.55;13.05;;;;;;;26.60;45.70;99732.70;2037743;87;27730;-68
2021/07/25 16:17:35;;;;;;;15.25;13.83;;;;;;;26.51;45.91;99725.64;2037648;87;28769;-62
2021/07/25 16:20:41;;;;;;;16.42;13.40;;;;;;;26.42;45.71;99727.66;2034701;87;31096;-77
2021/07/25 16:23:45;;;;;;;15.30;13.70;;;;;;;26.38;45.75;99729.95;2039637;87;32990;-77
2021/07/25 16:26:48;;;;;;;13.75;11.43;;;;;;;26.31;45.30;99731.75;2037604;87;29341;-75
2021/07/25 16:29:51;;;;;;;15.60;12.88;;;;;;;26.27;44.65;99733.17;2038110;86;27909;-66
2021/07/25 16:32:53;;;;;;;14.78;12.43;;;;;;;26.22;44.72;99735.67;2038200;86;28807;-67
2021/07/25 16:35:56;;;;;;;12.63;11.33;;;;;;;26.20;44.51;99735.01;2038377;87;31223;-66
2021/07/25 16:38:59;;;;;;;16.00;14.30;;;;;;;26.16;44.73;99739.17;2038239;86;33031;-66
2021/07/25 16:42:03;;;;;;;14.60;13.20;;;;;;;26.14;46.13;99740.75;2038528;87;29341;-66